createdAt,value
2023-01-09T00:00:24.418Z,2.43
2023-01-09T00:02:51.270Z,1.97
2023-01-09T00:05:19.451Z,1.77
2023-01-09T00:07:46.526Z,1.43
2023-01-09T00:10:14.283Z,1.77
2023-01-09T00:12:41.094Z,1.60
2023-01-09T00:15:08.589Z,1.67
2023-01-09T00:17:35.207Z,1.37
2023-01-09T00:20:01.866Z,2.07
2023-01-09T00:22:28.656Z,2.13
2023-01-09T00:24:55.377Z,1.80
2023-01-09T00:27:21.967Z,1.80
2023-01-09T00:29:49.408Z,1.67
2023-01-09T00:32:16.223Z,1.60
2023-01-09T00:34:45.855Z,1.50
2023-01-09T00:37:13.035Z,1.50
2023-01-09T00:39:40.830Z,1.50
2023-01-09T00:42:11.786Z,1.13
2023-01-09T00:44:43.075Z,1.20
2023-01-09T00:47:24.417Z,1.47
2023-01-09T00:49:52.113Z,1.13
2023-01-09T00:52:19.370Z,0.80
2023-01-09T00:54:46.461Z,0.90
2023-01-09T00:57:14.548Z,1.10
2023-01-09T00:59:42.110Z,1.20
2023-01-09T01:02:09.611Z,1.30
2023-01-09T01:04:55.148Z,1.00
2023-01-09T01:07:40.986Z,1.10
2023-01-09T01:10:10.346Z,0.90
2023-01-09T01:12:38.079Z,0.90
2023-01-09T01:15:06.073Z,0.73
2023-01-09T01:17:39.905Z,0.93
2023-01-09T01:20:13.693Z,0.83
2023-01-09T01:22:42.331Z,0.73
2023-01-09T01:25:10.930Z,0.60
2023-01-09T01:27:37.938Z,0.40
2023-01-09T01:30:06.281Z,0.50
2023-01-09T01:32:32.877Z,0.40
2023-01-09T01:34:59.467Z,0.70
2023-01-09T01:37:27.619Z,0.40
2023-01-09T01:39:54.227Z,0.40
2023-01-09T01:42:21.168Z,0.50
2023-01-09T01:45:01.937Z,0.37
2023-01-09T01:47:42.319Z,0.30
2023-01-09T01:50:22.311Z,0.30
2023-01-09T01:52:56.354Z,0.30
2023-01-09T01:55:23.775Z,0.30
2023-01-09T01:57:55.193Z,0.33
2023-01-09T02:00:27.077Z,0.60
2023-01-09T02:02:53.780Z,0.43
2023-01-09T02:05:20.614Z,0.23
2023-01-09T02:07:47.222Z,0.40
2023-01-09T02:10:14.722Z,0.30
2023-01-09T02:12:41.476Z,0.30
2023-01-09T02:15:12.981Z,0.77
2023-01-09T02:18:07.554Z,0.37
2023-01-09T02:20:39.163Z,0.30
2023-01-09T02:23:27.651Z,0.30
2023-01-09T02:26:13.040Z,0.30
2023-01-09T02:29:14.605Z,0.30
2023-01-09T02:32:05.503Z,0.30
2023-01-09T02:34:43.791Z,0.30
2023-01-09T02:37:26.546Z,0.30
2023-01-09T02:40:02.206Z,0.40
2023-01-09T02:42:31.417Z,1.90
2023-01-09T02:44:58.090Z,0.40
2023-01-09T02:47:24.652Z,0.40
2023-01-09T02:49:58.402Z,0.40
2023-01-09T02:52:25.086Z,0.40
2023-01-09T02:55:23.047Z,0.50
2023-01-09T02:58:01.906Z,0.50
2023-01-09T03:00:35.101Z,0.30
2023-01-09T03:03:40.160Z,0.40
2023-01-09T03:06:10.565Z,0.50
2023-01-09T03:08:41.785Z,0.60
2023-01-09T03:11:08.981Z,0.37
2023-01-09T03:13:48.538Z,0.70
2023-01-09T03:16:20.063Z,0.40
2023-01-09T03:18:49.828Z,0.70
2023-01-09T03:21:16.964Z,0.60
2023-01-09T03:23:55.381Z,0.60
2023-01-09T03:26:22.311Z,0.70
2023-01-09T03:28:49.148Z,0.80
2023-01-09T03:31:16.822Z,0.80
2023-01-09T03:33:44.473Z,0.70
2023-01-09T03:36:12.564Z,0.67
2023-01-09T03:38:40.083Z,0.50
2023-01-09T03:41:07.243Z,0.40
2023-01-09T03:43:34.056Z,0.70
2023-01-09T03:46:01.243Z,0.80
2023-01-09T03:48:28.224Z,0.90
2023-01-09T03:50:55.985Z,0.77
2023-01-09T03:53:26.183Z,1.07
2023-01-09T03:55:55.084Z,1.17
2023-01-09T03:58:23.488Z,1.00
2023-01-09T04:00:50.754Z,0.97
2023-01-09T04:03:20.667Z,0.80
2023-01-09T04:05:49.109Z,0.70
2023-01-09T04:08:16.378Z,0.90
2023-01-09T04:10:46.777Z,0.80
2023-01-09T04:13:13.656Z,0.93
2023-01-09T04:15:40.330Z,1.07
2023-01-09T04:18:07.180Z,0.77
2023-01-09T04:20:34.455Z,1.20
2023-01-09T04:23:01.816Z,0.83
2023-01-09T04:25:28.503Z,1.10
2023-01-09T04:27:55.129Z,0.87
2023-01-09T04:30:21.833Z,0.80
2023-01-09T04:32:48.438Z,0.87
2023-01-09T04:35:15.223Z,1.03
2023-01-09T04:37:41.845Z,0.60
2023-01-09T04:40:10.121Z,0.77
2023-01-09T04:42:37.365Z,0.50
2023-01-09T04:45:05.478Z,1.27
2023-01-09T04:47:32.726Z,1.20
2023-01-09T04:49:59.977Z,0.53
2023-01-09T04:52:27.164Z,0.80
2023-01-09T04:54:53.778Z,0.80
2023-01-09T04:57:21.079Z,1.10
2023-01-09T04:59:47.696Z,0.87
2023-01-09T05:02:14.473Z,0.90
2023-01-09T05:04:41.188Z,0.80
2023-01-09T05:07:07.923Z,0.70
2023-01-09T05:09:35.919Z,1.07
2023-01-09T05:12:02.703Z,1.07
2023-01-09T05:14:29.359Z,1.13
2023-01-09T05:16:56.555Z,0.70
2023-01-09T05:19:23.517Z,1.33
2023-01-09T05:21:50.198Z,0.93
2023-01-09T05:24:16.832Z,0.80
2023-01-09T05:26:43.468Z,0.77
2023-01-09T05:29:10.739Z,0.80
2023-01-09T05:31:37.422Z,0.70
2023-01-09T05:34:04.125Z,1.07
2023-01-09T05:36:30.782Z,1.63
2023-01-09T05:38:58.065Z,0.70
2023-01-09T05:41:28.364Z,0.80
2023-01-09T05:43:55.038Z,0.77
2023-01-09T05:46:21.678Z,0.93
2023-01-09T05:48:48.303Z,1.37
2023-01-09T05:51:14.922Z,0.60
2023-01-09T05:53:41.528Z,0.50
2023-01-09T05:56:08.145Z,0.70
2023-01-09T05:58:34.761Z,0.80
2023-01-09T06:01:01.453Z,0.70
2023-01-09T06:03:28.073Z,1.40
2023-01-09T06:05:54.683Z,0.67
2023-01-09T06:08:21.373Z,1.07
2023-01-09T06:10:48.114Z,0.60
2023-01-09T06:13:14.834Z,0.70
2023-01-09T06:15:42.317Z,0.40
2023-01-09T06:18:09.363Z,0.60
2023-01-09T06:20:36.042Z,0.67
2023-01-09T06:23:02.711Z,0.93
2023-01-09T06:25:29.397Z,0.60
2023-01-09T06:27:56.159Z,0.63
2023-01-09T06:30:22.926Z,0.70
2023-01-09T06:32:50.376Z,1.37
2023-01-09T06:35:22.168Z,0.50
2023-01-09T06:37:49.660Z,1.20
2023-01-09T06:40:17.417Z,1.30
2023-01-09T06:42:45.480Z,0.83
2023-01-09T06:45:13.268Z,0.97
2023-01-09T06:47:40.282Z,0.60
2023-01-09T06:50:09.239Z,0.80
2023-01-09T06:52:36.796Z,0.70
2023-01-09T06:55:03.858Z,0.77
2023-01-09T06:57:30.671Z,0.87
2023-01-09T06:59:57.762Z,0.80
2023-01-09T07:02:24.667Z,0.63
2023-01-09T07:04:51.271Z,0.83
2023-01-09T07:07:19.568Z,0.67
2023-01-09T07:09:46.476Z,0.60
2023-01-09T07:12:14.716Z,0.60
2023-01-09T07:14:41.771Z,0.70
2023-01-09T07:17:09.817Z,0.63
2023-01-09T07:19:36.452Z,0.70
2023-01-09T07:22:03.098Z,0.93
2023-01-09T07:24:29.767Z,0.70
2023-01-09T07:26:56.421Z,1.10
2023-01-09T07:29:23.102Z,1.10
2023-01-09T07:31:49.701Z,0.60
2023-01-09T07:34:16.350Z,0.93
2023-01-09T07:36:46.609Z,0.70
2023-01-09T07:39:13.801Z,0.43
2023-01-09T07:41:40.492Z,1.90
2023-01-09T07:44:11.095Z,0.70
2023-01-09T07:46:38.307Z,0.73
2023-01-09T07:49:05.134Z,0.80
2023-01-09T07:51:32.042Z,0.87
2023-01-09T07:53:59.331Z,0.80
2023-01-09T07:56:26.020Z,1.33
2023-01-09T07:58:52.666Z,0.90
2023-01-09T08:01:19.412Z,0.60
2023-01-09T08:03:46.091Z,0.67
2023-01-09T08:06:12.731Z,0.83
2023-01-09T08:08:39.316Z,0.53
2023-01-09T08:11:06.035Z,0.60
2023-01-09T08:13:32.652Z,0.70
2023-01-09T08:15:59.444Z,0.40
2023-01-09T08:18:26.166Z,0.70
2023-01-09T08:20:52.887Z,0.40
2023-01-09T08:23:19.659Z,0.57
2023-01-09T08:25:46.375Z,0.70
2023-01-09T08:28:13.349Z,0.87
2023-01-09T08:30:39.956Z,0.60
2023-01-09T08:33:07.290Z,0.47
2023-01-09T08:35:34.017Z,0.73
2023-01-09T08:38:00.759Z,0.50
2023-01-09T08:40:27.351Z,1.20
2023-01-09T08:43:12.404Z,0.80
2023-01-09T08:45:57.787Z,0.70
2023-01-09T08:48:24.403Z,0.50
2023-01-09T08:50:52.175Z,0.83
2023-01-09T08:53:18.801Z,0.43
2023-01-09T08:55:45.638Z,0.57
2023-01-09T08:58:12.564Z,0.53
2023-01-09T09:00:39.307Z,0.80
2023-01-09T09:03:05.992Z,0.93
2023-01-09T09:05:33.295Z,0.60
2023-01-09T09:08:00.053Z,1.20
2023-01-09T09:10:28.916Z,0.70
2023-01-09T09:12:57.673Z,1.23
2023-01-09T09:15:26.455Z,0.70
2023-01-09T09:17:58.424Z,0.70
2023-01-09T09:20:27.709Z,0.40
2023-01-09T09:22:54.369Z,0.80
2023-01-09T09:25:21.243Z,0.50
2023-01-09T09:27:48.569Z,0.63
2023-01-09T09:30:17.921Z,0.80
2023-01-09T09:32:45.328Z,0.97
2023-01-09T09:35:12.619Z,0.77
2023-01-09T09:37:39.323Z,0.70
2023-01-09T09:40:18.063Z,0.80
2023-01-09T09:43:23.044Z,1.10
2023-01-09T09:46:05.702Z,0.63
2023-01-09T09:48:40.370Z,1.00
2023-01-09T09:51:30.811Z,0.73
2023-01-09T09:54:09.202Z,1.00
2023-01-09T09:56:52.727Z,0.60
2023-01-09T09:59:26.749Z,0.80
2023-01-09T10:02:00.669Z,0.70
2023-01-09T10:04:30.486Z,0.70
2023-01-09T10:07:09.346Z,1.00
2023-01-09T10:10:00.344Z,0.73
2023-01-09T10:12:37.682Z,0.97
2023-01-09T10:15:30.889Z,1.20
2023-01-09T10:18:10.388Z,0.97
2023-01-09T10:20:55.092Z,0.93
2023-01-09T10:23:32.604Z,0.60
2023-01-09T10:26:11.723Z,0.63
2023-01-09T10:28:53.728Z,1.00
2023-01-09T10:31:53.226Z,1.13
2023-01-09T10:34:43.257Z,1.30
2023-01-09T10:37:24.540Z,1.63
2023-01-09T10:39:54.127Z,1.43
2023-01-09T10:42:30.631Z,1.17
2023-01-09T10:45:18.991Z,1.17
2023-01-09T10:47:46.421Z,0.90
2023-01-09T10:50:23.895Z,0.87
2023-01-09T10:52:53.421Z,1.20
2023-01-09T10:55:47.750Z,1.23
2023-01-09T10:58:20.927Z,1.00
2023-01-09T11:00:49.772Z,0.90
2023-01-09T11:03:21.522Z,1.53
2023-01-09T11:05:53.520Z,1.10
2023-01-09T11:08:41.912Z,1.90
2023-01-09T11:11:09.962Z,0.80
2023-01-09T11:13:38.363Z,0.80
2023-01-09T11:16:11.444Z,0.60
2023-01-09T11:18:47.709Z,2.77
2023-01-09T11:21:27.366Z,2.10
2023-01-09T11:23:54.910Z,1.10
2023-01-09T11:26:24.507Z,1.10
2023-01-09T11:29:12.584Z,1.30
2023-01-09T11:31:41.312Z,1.00
2023-01-09T11:34:24.156Z,1.10
2023-01-09T11:36:53.380Z,1.27
2023-01-09T11:39:29.248Z,1.17
2023-01-09T11:41:58.867Z,1.60
2023-01-09T11:44:27.425Z,0.80
2023-01-09T11:46:54.363Z,1.80
2023-01-09T11:49:31.634Z,2.03
2023-01-09T11:52:20.799Z,1.53
2023-01-09T11:55:00.720Z,2.00
2023-01-09T11:57:27.594Z,2.13
2023-01-09T12:00:01.128Z,2.40
2023-01-09T12:02:39.965Z,1.10
2023-01-09T12:05:22.819Z,1.17
2023-01-09T12:08:14.849Z,0.60
2023-01-09T12:11:15.617Z,2.67
2023-01-09T12:14:01.008Z,1.33
2023-01-09T12:16:55.620Z,1.43
2023-01-09T12:19:44.517Z,1.97
2023-01-09T12:22:18.416Z,1.60
2023-01-09T12:25:28.989Z,1.27
2023-01-09T12:28:20.084Z,1.27
2023-01-09T12:31:36.830Z,1.20
2023-01-09T12:34:15.026Z,1.40
2023-01-09T12:36:55.781Z,1.03
2023-01-09T12:39:42.920Z,0.87
2023-01-09T12:42:42.902Z,1.40
2023-01-09T12:45:50.138Z,1.70
2023-01-09T12:48:50.614Z,2.00
2023-01-09T12:51:17.238Z,1.60
2023-01-09T12:54:10.900Z,1.67
2023-01-09T12:56:43.392Z,0.90
2023-01-09T12:59:29.988Z,0.80
2023-01-09T13:02:13.350Z,1.53
2023-01-09T13:04:47.990Z,1.10
2023-01-09T13:07:21.110Z,1.13
2023-01-09T13:09:53.909Z,1.27
2023-01-09T13:12:24.026Z,1.50
2023-01-09T13:15:01.548Z,0.93
2023-01-09T13:17:36.511Z,1.70
2023-01-09T13:20:17.479Z,2.70
2023-01-09T13:22:49.817Z,1.07
2023-01-09T13:25:37.967Z,1.40
2023-01-09T13:28:16.297Z,1.40
2023-01-09T13:31:08.637Z,1.77
2023-01-09T13:33:42.721Z,1.43
2023-01-09T13:36:20.239Z,1.50
2023-01-09T13:38:49.109Z,2.00
2023-01-09T13:41:37.002Z,2.90
2023-01-09T13:44:28.836Z,2.60
2023-01-09T13:46:58.736Z,2.40
2023-01-09T13:49:55.109Z,1.83
2023-01-09T13:52:36.845Z,2.10
2023-01-09T13:55:14.778Z,1.50
2023-01-09T13:58:08.100Z,1.60
2023-01-09T14:00:34.684Z,1.40
2023-01-09T14:03:21.853Z,1.50
2023-01-09T14:05:48.404Z,1.63
2023-01-09T14:08:23.862Z,1.70
2023-01-09T14:10:57.704Z,1.57
2023-01-09T14:13:33.863Z,1.47
2023-01-09T14:16:23.605Z,1.17
2023-01-09T14:19:13.502Z,2.10
2023-01-09T14:21:57.518Z,2.00
2023-01-09T14:24:28.983Z,1.90
2023-01-09T14:26:58.525Z,2.07
2023-01-09T14:29:31.240Z,1.97
2023-01-09T14:32:22.730Z,1.70
2023-01-09T14:35:17.573Z,1.53
2023-01-09T14:37:58.661Z,1.87
2023-01-09T14:40:26.153Z,2.07
2023-01-09T14:42:55.047Z,2.00
2023-01-09T14:45:25.393Z,2.00
2023-01-09T14:47:57.953Z,1.70
2023-01-09T14:50:51.038Z,2.30
2023-01-09T14:53:31.224Z,2.10
2023-01-09T14:56:00.259Z,2.30
2023-01-09T14:58:37.268Z,2.37
2023-01-09T15:01:16.410Z,2.03
2023-01-09T15:03:49.335Z,2.33
2023-01-09T15:06:23.773Z,2.07
2023-01-09T15:09:15.348Z,2.37
2023-01-09T15:11:42.440Z,2.40
2023-01-09T15:14:24.914Z,2.70
2023-01-09T15:16:51.856Z,2.30
2023-01-09T15:19:19.450Z,1.90
2023-01-09T15:22:27.916Z,2.73
2023-01-09T15:24:54.580Z,2.13
2023-01-09T15:27:22.025Z,2.10
2023-01-09T15:29:49.386Z,2.40
2023-01-09T15:32:27.946Z,2.80
2023-01-09T15:34:56.282Z,5.00
2023-01-09T15:37:28.019Z,5.50
2023-01-09T15:39:56.304Z,4.33
2023-01-09T15:42:45.277Z,3.40
2023-01-09T15:45:27.763Z,5.13
2023-01-09T15:48:13.653Z,2.70
2023-01-09T15:50:41.691Z,3.20
2023-01-09T15:53:17.712Z,3.37
2023-01-09T15:55:46.379Z,3.03
2023-01-09T15:58:32.686Z,3.33
2023-01-09T16:01:06.647Z,2.53
2023-01-09T16:03:38.184Z,3.20
2023-01-09T16:06:10.426Z,3.53
2023-01-09T16:08:42.659Z,2.67
2023-01-09T16:11:22.806Z,3.00
2023-01-09T16:13:50.102Z,2.97
2023-01-09T16:16:30.883Z,2.73
2023-01-09T16:18:58.605Z,3.30
2023-01-09T16:21:34.962Z,2.80
2023-01-09T16:24:13.426Z,2.83
2023-01-09T16:26:40.336Z,3.33
2023-01-09T16:29:27.284Z,3.17
2023-01-09T16:32:01.532Z,3.07
2023-01-09T16:34:28.490Z,2.80
2023-01-09T16:36:55.561Z,4.00
2023-01-09T16:39:22.304Z,3.17
2023-01-09T16:42:07.543Z,3.63
2023-01-09T16:44:34.126Z,2.93
2023-01-09T16:47:00.724Z,3.50
2023-01-09T16:49:28.692Z,4.07
2023-01-09T16:51:56.877Z,3.90
2023-01-09T16:54:23.707Z,5.10
2023-01-09T16:56:54.157Z,4.37
2023-01-09T16:59:26.620Z,4.80
2023-01-09T17:01:54.113Z,4.37
2023-01-09T17:04:21.255Z,4.90
2023-01-09T17:06:49.433Z,4.93
2023-01-09T17:09:19.018Z,4.60
2023-01-09T17:11:45.832Z,5.23
2023-01-09T17:14:13.364Z,5.20
2023-01-09T17:16:43.189Z,4.20
2023-01-09T17:19:17.595Z,4.90
2023-01-09T17:21:44.409Z,4.93
2023-01-09T17:24:29.970Z,4.27
2023-01-09T17:27:15.520Z,4.57
2023-01-09T17:29:42.162Z,5.67
2023-01-09T17:32:16.075Z,4.20
2023-01-09T17:34:43.489Z,3.60
2023-01-09T17:37:18.411Z,6.37
2023-01-09T17:39:45.668Z,4.50
2023-01-09T17:42:12.394Z,4.50
2023-01-09T17:44:39.009Z,4.43
2023-01-09T17:47:06.972Z,9.10
2023-01-09T17:49:33.781Z,6.63
2023-01-09T17:52:00.381Z,5.10
2023-01-09T17:54:27.366Z,4.70
2023-01-09T17:56:54.261Z,3.97
2023-01-09T17:59:20.984Z,3.77
2023-01-09T18:01:47.717Z,4.67
2023-01-09T18:04:15.479Z,4.97
2023-01-09T18:06:42.162Z,5.77
2023-01-09T18:09:14.096Z,5.13
2023-01-09T18:11:40.910Z,6.63
2023-01-09T18:14:08.550Z,6.40
2023-01-09T18:16:35.208Z,5.07
2023-01-09T18:19:02.201Z,4.73
2023-01-09T18:21:29.788Z,6.10
2023-01-09T18:23:57.873Z,5.77
2023-01-09T18:26:24.691Z,10.20
2023-01-09T18:28:59.601Z,7.10
2023-01-09T18:31:28.115Z,5.60
2023-01-09T18:33:57.291Z,4.23
2023-01-09T18:36:29.428Z,5.07
2023-01-09T18:38:58.159Z,4.60
2023-01-09T18:41:25.062Z,3.77
2023-01-09T18:43:53.653Z,4.27
2023-01-09T18:46:24.368Z,4.87
2023-01-09T18:48:59.567Z,4.60
2023-01-09T18:51:27.100Z,4.60
2023-01-09T18:53:54.911Z,4.27
2023-01-09T18:56:22.329Z,4.13
2023-01-09T18:58:49.015Z,4.70
2023-01-09T19:01:16.391Z,5.03
2023-01-09T19:03:43.257Z,6.40
2023-01-09T19:06:10.284Z,4.57
2023-01-09T19:08:36.972Z,3.97
2023-01-09T19:11:04.133Z,3.53
2023-01-09T19:13:33.169Z,4.60
2023-01-09T19:16:00.289Z,4.43
2023-01-09T19:18:28.261Z,4.43
2023-01-09T19:20:55.559Z,5.30
2023-01-09T19:23:25.658Z,5.10
2023-01-09T19:25:53.485Z,4.37
2023-01-09T19:28:21.240Z,5.60
2023-01-09T19:30:53.747Z,5.57
2023-01-09T19:33:20.347Z,6.10
2023-01-09T19:35:48.619Z,5.20
2023-01-09T19:38:15.208Z,5.30
2023-01-09T19:40:41.796Z,4.57
2023-01-09T19:43:08.638Z,5.20
2023-01-09T19:45:35.367Z,5.27
2023-01-09T19:48:02.022Z,4.53
2023-01-09T19:50:28.665Z,5.67
2023-01-09T19:52:55.507Z,5.10
2023-01-09T19:55:22.337Z,4.87
2023-01-09T19:57:48.971Z,5.17
2023-01-09T20:00:15.955Z,6.30
2023-01-09T20:02:42.657Z,5.77
2023-01-09T20:05:10.198Z,7.37
2023-01-09T20:07:36.937Z,5.40
2023-01-09T20:10:03.956Z,6.30
2023-01-09T20:12:31.988Z,6.90
2023-01-09T20:14:58.611Z,6.70
2023-01-09T20:17:25.234Z,6.33
2023-01-09T20:19:51.859Z,7.63
2023-01-09T20:22:18.456Z,7.70
2023-01-09T20:24:45.063Z,7.10
2023-01-09T20:27:11.698Z,9.40
2023-01-09T20:29:38.380Z,9.67
2023-01-09T20:32:06.099Z,9.10
2023-01-09T20:34:32.856Z,7.80
2023-01-09T20:36:59.586Z,8.87
2023-01-09T20:39:26.261Z,9.13
2023-01-09T20:41:52.950Z,9.37
2023-01-09T20:44:19.653Z,9.40
2023-01-09T20:46:49.617Z,10.03
2023-01-09T20:49:20.878Z,10.83
2023-01-09T20:51:50.241Z,9.90
2023-01-09T20:54:18.506Z,8.57
2023-01-09T20:56:45.180Z,8.80
2023-01-09T20:59:17.082Z,9.33
2023-01-09T21:01:43.835Z,8.23
2023-01-09T21:04:10.517Z,9.03
2023-01-09T21:06:37.256Z,8.33
2023-01-09T21:09:05.474Z,9.00
2023-01-09T21:11:32.596Z,8.27
2023-01-09T21:13:59.776Z,7.60
2023-01-09T21:16:26.854Z,8.53
2023-01-09T21:18:54.482Z,7.80
2023-01-09T21:21:24.302Z,10.03
2023-01-09T21:23:53.177Z,8.43
2023-01-09T21:26:22.511Z,8.80
2023-01-09T21:28:51.473Z,8.53
2023-01-09T21:31:20.543Z,7.67
2023-01-09T21:33:48.420Z,8.53
2023-01-09T21:36:16.014Z,8.27
2023-01-09T21:38:43.044Z,6.50
2023-01-09T21:41:28.658Z,6.93
2023-01-09T21:44:14.058Z,6.90
2023-01-09T21:46:52.948Z,6.90
2023-01-09T21:49:22.953Z,6.13
2023-01-09T21:51:49.562Z,6.80
2023-01-09T21:54:16.365Z,6.20
2023-01-09T21:56:43.018Z,5.70
2023-01-09T21:59:10.179Z,6.00
2023-01-09T22:01:36.877Z,5.87
2023-01-09T22:04:04.253Z,5.43
2023-01-09T22:06:31.340Z,4.80
2023-01-09T22:08:58.059Z,5.50
2023-01-09T22:11:24.771Z,6.10
2023-01-09T22:13:52.033Z,4.80
2023-01-09T22:16:19.210Z,6.27
2023-01-09T22:18:46.058Z,5.53
2023-01-09T22:21:12.731Z,4.90
2023-01-09T22:23:39.354Z,6.70
2023-01-09T22:26:14.275Z,4.53
2023-01-09T22:28:42.186Z,5.10
2023-01-09T22:31:17.995Z,3.93
2023-01-09T22:33:52.192Z,4.73
2023-01-09T22:36:19.575Z,4.57
2023-01-09T22:38:46.860Z,4.30
2023-01-09T22:41:13.789Z,5.53
2023-01-09T22:43:40.456Z,4.60
2023-01-09T22:46:11.196Z,4.53
2023-01-09T22:48:39.026Z,5.50
2023-01-09T22:51:27.289Z,5.73
2023-01-09T22:53:53.989Z,5.70
2023-01-09T22:56:22.349Z,6.70
2023-01-09T22:58:53.610Z,7.27
2023-01-09T23:01:21.544Z,7.53
2023-01-09T23:03:48.601Z,6.77
2023-01-09T23:06:18.197Z,8.60
2023-01-09T23:08:46.024Z,8.13
2023-01-09T23:11:16.160Z,10.23
2023-01-09T23:13:43.336Z,7.00
2023-01-09T23:16:09.975Z,10.93
2023-01-09T23:18:36.597Z,8.70
2023-01-09T23:21:05.023Z,8.90
2023-01-09T23:23:32.703Z,8.27
2023-01-09T23:26:02.368Z,8.30
2023-01-09T23:28:30.321Z,8.77
2023-01-09T23:30:57.244Z,8.93
2023-01-09T23:33:23.987Z,8.30
2023-01-09T23:35:50.580Z,8.30
2023-01-09T23:38:17.237Z,7.80
2023-01-09T23:40:43.871Z,7.77
2023-01-09T23:43:11.462Z,9.43
2023-01-09T23:45:39.819Z,7.50
2023-01-09T23:48:07.835Z,7.30
2023-01-09T23:50:35.769Z,7.50
2023-01-09T23:53:03.341Z,7.13
2023-01-09T23:55:30.563Z,6.97
2023-01-09T23:57:57.247Z,6.33
